Aérodrome :
LOGIN :

S'inscrire | Disclaimer

   EN    FR    IT 

 










Légende :    VFR   VFR Marginal   IFR   IFR Intensif   IFR Très Intensif
Visi : 
Plafond : 
>= 8 km
>= 3000ft
5 à 8 km
1000 à 3000 ft
1500m à 5 km
500 à 1000 ft
800 à 1500m
200 à 500 ft
< 800m
< 200 ft
Symboles :   Orages  Brouillard  Fortes neiges  Fortes précipitations  Vent > 20 kt
SIGMETs :   Divers  Orages  Givrage  Turbulence  Onde Orograph.  Cendres Volcan.







- Altitude de l'aérodrome : 290 ft
- Code IATA : OSI


LDOS - Osijek

DERNIER METAR :
  • 241730Z VRB06KT CAVOK 10/08 Q1027

METARs EXPIRÉS :
  • 241700Z 22010KT 9999 FEW030 11/08 Q1026
  • 241630Z 25007KT 9999 FEW033 12/09 Q1026
  • 241600Z 23011KT 9999 FEW037 12/09 Q1026
  • 241530Z 24012KT 9999 FEW040 12/09 Q1026
  • 241500Z 23012KT 9999 FEW040 13/09 Q1026

TAF TAF LDOS
Valide du 24 à 18h jusqu'au 25 à 18h UTC


241725Z 2418/2518 34010KT 9999 SCT030 TX13/2513Z TN07/2505Z
PROB40 2418/2420 23010KT
Pas de NOTAMs connus pour ce terrain.
1 SIGMET publié pour la FIR Zagreb (LDZO) :
 
Turbulence forte
LDZO SIGMET 13 VALID 241600/242000 LDZA
LDZO ZAGREB FIR SEV TURB FCST WI N4303 E01554 - N4351 E01645 - N4231 E01834 - N4149 E01824 - N4303 E01554 SFC/6000FT STNR NC=



MET'MAP, la Météo Aéronautique d'un coup d'oeil ! - Copyright ORBIFLY Décembre 2007 - Disclaimer

ORBIFLY MET'MAP TEAM :

Programmation & Développement : Alexandra Zaïnal
Conception & Développement : Baudouin d'Aumeries
Co-Programmation & Développement : Marc-Olivier Méhu
Soutien technique & logistique : Manuel Goepfert

Contact : metmap@orbifly.com




SOURCES & CREDITS :

   NOAA